Hestrud (Nord, France) - 208 m
Donnes mto: Actuelle dimanche, 08/12/2019 09:43
Date Horaire Temp Out Temp. 4 Temp. E. min Temp. E. max Temp. Sol 1 Hum Out Hum. Sol 1 Press Rain Wind Dir Dir Solar Ev.Tr. UV Hi Solar Rad Dew Point Windchill Wind (Gust)
08/12/2019 09:43 8,7 C 0,0 C 8,6 C 8,7 C 8,3 C 97 % 113 cb 1005,8 hPa 1,6 mm 24,1 km/h (4 Bft) SO 225 0 min 0,000 mm 0,0 UV-I 7 W/m 8,3 C 0,3 C 35,4 km/h (5 Bft)
08/12/2019 08:43 8,6 C 0,0 C 8,6 C 8,6 C 7,8 C 96 % 113 cb 1005,9 hPa 2,8 mm 20,9 km/h (4 Bft) SO 225 0 min 0,025 mm 0,0 UV-I 0 W/m 8,0 C 1,2 C 29,0 km/h (5 Bft)
08/12/2019 07:43 8,7 C 0,0 C 8,7 C 8,7 C 7,8 C 93 % 120 cb 1007,0 hPa 0,2 mm 12,9 km/h (3 Bft) SO 225 0 min 0,025 mm 0,0 UV-I 0 W/m 7,6 C 4,6 C 20,9 km/h (4 Bft)
08/12/2019 06:43 8,8 C 0,0 C 8,8 C 8,8 C 7,8 C 91 % 120 cb 1007,5 hPa 0,0 mm 24,1 km/h (4 Bft) SO 225 0 min 0,025 mm 0,0 UV-I 0 W/m 7,4 C 0,5 C 37,0 km/h (5 Bft)
08/12/2019 05:43 9,0 C 0,0 C 9,0 C 9,0 C 7,8 C 93 % 119 cb 1007,9 hPa 0,0 mm 17,7 km/h (3 Bft) SO 225 0 min 0,025 mm 0,0 UV-I 0 W/m 7,9 C 2,8 C 24,1 km/h (4 Bft)
08/12/2019 04:43 8,9 C 0,0 C 8,9 C 8,9 C 7,8 C 92 % 119 cb 1008,7 hPa 0,0 mm 24,1 km/h (4 Bft) SO 225 0 min 0,025 mm 0,0 UV-I 0 W/m 7,7 C 0,6 C 35,4 km/h (5 Bft)
08/12/2019 03:43 8,7 C 0,0 C 8,7 C 8,7 C 7,8 C 92 % 119 cb 1010,2 hPa 0,0 mm 20,9 km/h (4 Bft) SO 225 0 min 0,025 mm 0,0 UV-I 0 W/m 7,5 C 1,3 C 33,8 km/h (5 Bft)
08/12/2019 02:43 8,3 C 0,0 C 8,3 C 8,3 C 7,2 C 92 % 118 cb 1011,1 hPa 0,0 mm 17,7 km/h (3 Bft) SO 225 0 min 0,025 mm 0,0 UV-I 0 W/m 7,1 C 1,9 C 43,5 km/h (6 Bft)
08/12/2019 01:43 8,2 C 0,0 C 8,2 C 8,2 C 7,2 C 91 % 118 cb 1012,2 hPa 0,0 mm 19,3 km/h (3 Bft) SO 225 0 min 0,000 mm 0,0 UV-I 0 W/m 6,8 C 1,2 C 29,0 km/h (5 Bft)
08/12/2019 00:43 7,8 C 0,0 C 7,8 C 7,8 C 6,7 C 93 % 116 cb 1013,2 hPa 0,0 mm 19,3 km/h (3 Bft) O-SO 247 0 min 0,025 mm 0,0 UV-I 0 W/m 6,7 C 0,7 C 32,2 km/h (5 Bft)
07/12/2019 23:43 7,8 C 0,0 C 7,8 C 7,8 C 6,7 C 92 % 115 cb 1014,3 hPa 0,0 mm 12,9 km/h (3 Bft) O-SO 247 0 min 0,025 mm 0,0 UV-I 0 W/m 6,6 C 3,5 C 20,9 km/h (4 Bft)
07/12/2019 22:43 7,8 C 0,0 C 7,8 C 7,8 C 6,7 C 91 % 115 cb 1015,3 hPa 0,0 mm 12,9 km/h (3 Bft) O-SO 247 0 min 0,025 mm 0,0 UV-I 0 W/m 6,4 C 3,5 C 17,7 km/h (3 Bft)
07/12/2019 21:43 7,8 C 0,0 C 7,8 C 7,8 C 6,7 C 89 % 114 cb 1015,6 hPa 0,0 mm 12,9 km/h (3 Bft) SO 225 0 min 0,000 mm 0,0 UV-I 0 W/m 6,1 C 3,5 C 16,1 km/h (3 Bft)
07/12/2019 20:43 7,8 C 0,0 C 7,8 C 7,8 C 6,7 C 91 % 113 cb 1016,1 hPa 0,0 mm 9,7 km/h (2 Bft) O-SO 247 0 min 0,000 mm 0,0 UV-I 0 W/m 6,4 C 5,4 C 12,9 km/h (3 Bft)
07/12/2019 19:43 7,8 C 0,0 C 7,8 C 7,8 C 6,7 C 93 % 113 cb 1016,5 hPa 0,0 mm 9,7 km/h (2 Bft) SO 225 0 min 0,000 mm 0,0 UV-I 0 W/m 6,7 C 5,4 C 12,9 km/h (3 Bft)
07/12/2019 18:43 7,7 C 0,0 C 7,7 C 7,7 C 7,2 C 96 % 114 cb 1016,7 hPa 0,0 mm 12,9 km/h (3 Bft) SO 225 0 min 0,000 mm 0,0 UV-I 0 W/m 7,1 C 3,4 C 16,1 km/h (3 Bft)
07/12/2019 17:43 7,8 C 0,0 C 7,8 C 7,8 C 7,2 C 96 % 114 cb 1016,4 hPa 0,0 mm 8,0 km/h (2 Bft) O-SO 247 0 min 0,000 mm 0,0 UV-I 0 W/m 7,2 C 6,5 C 11,3 km/h (2 Bft)
07/12/2019 16:43 8,1 C 0,0 C 8,1 C 8,1 C 7,2 C 95 % 114 cb 1016,4 hPa 0,0 mm 9,7 km/h (2 Bft) SO 225 0 min 0,025 mm 0,0 UV-I 0 W/m 7,3 C 5,7 C 14,5 km/h (3 Bft)
07/12/2019 15:43 8,3 C 0,0 C 8,3 C 8,3 C 7,8 C 95 % 114 cb 1016,1 hPa 0,0 mm 11,3 km/h (2 Bft) SO 225 0 min 0,025 mm 0,0 UV-I 25 W/m 7,5 C 4,9 C 12,9 km/h (3 Bft)
07/12/2019 14:43 8,5 C 0,0 C 8,5 C 8,5 C 7,8 C 94 % 115 cb 1016,1 hPa 0,0 mm 12,9 km/h (3 Bft) O-SO 247 0 min 0,051 mm 0,0 UV-I 51 W/m 7,6 C 4,3 C 16,1 km/h (3 Bft)
07/12/2019 13:43 8,6 C 0,0 C 8,6 C 8,6 C 7,8 C 96 % 117 cb 1016,0 hPa 0,0 mm 9,7 km/h (2 Bft) O 270 0 min 0,025 mm 0,0 UV-I 68 W/m 8,0 C 6,2 C 12,9 km/h (3 Bft)
07/12/2019 12:43 8,3 C 0,0 C 8,3 C 8,3 C 7,8 C 97 % 118 cb 1016,2 hPa 0,0 mm 8,0 km/h (2 Bft) O-SO 247 0 min 0,025 mm 0,0 UV-I 93 W/m 7,9 C 7,1 C 9,7 km/h (2 Bft)
07/12/2019 11:43 8,0 C 0,0 C 8,0 C 8,0 C 7,2 C 98 % 118 cb 1016,1 hPa 0,0 mm 11,3 km/h (2 Bft) O-SO 247 0 min 0,025 mm 0,0 UV-I 90 W/m 7,7 C 4,6 C 16,1 km/h (3 Bft)
07/12/2019 10:43 7,6 C 0,0 C 7,6 C 7,6 C 7,2 C 98 % 119 cb 1016,1 hPa 0,0 mm 12,9 km/h (3 Bft) O-SO 247 0 min 0,025 mm 0,0 UV-I 42 W/m 7,3 C 3,3 C 19,3 km/h (3 Bft)
07/12/2019 10:00 7,4 C 0,0 C 7,4 C 7,4 C 6,7 C 98 % 119 cb 1015,7 hPa 0,0 mm 12,9 km/h (3 Bft) O-SO 247 0 min 0,025 mm 0,0 UV-I 47 W/m 7,1 C 3,0 C 17,7 km/h (3 Bft)
_ Min-Heure 10:00 10:00 10:00 10:00 10:00 21:29 09:15 08:16 - 19:30 - - - - - - 21:29 09:14 19:30
Minimum _ 7,4 C 0,0 C 7,4 C 7,4 C 6,7 C 89 % 112 cb 1005,5 hPa - 4,8 km/h (1 Bft) - - - - - - 6,1 C -1,1 C 8,0 km/h (2 Bft)
_ Max-Heure 05:21 10:00 05:25 05:21 09:27 10:00 06:27 17:57 07:39 06:10 - - 10:00 14:00 12:06 13:25 08:54 13:35 05:16
Maximum _ 9,1 C 0,0 C 9,1 C 9,1 C 8,3 C 98 % 120 cb 1016,7 hPa 0,2 mm 29,0 km/h
SO (5 Bft)
- - 0 min 0,051 mm 0,5 UV-I 145 W/m 8,3 C 8,6 C 49,9 km/h
S-SO (6 Bft)
Moyenne _ 8,2 C 0,0 C 8,1 C 8,2 C 7,3 C 94 % 116 cb 1013,4 hPa #4,6 mm 14,1 km/h (3 Bft) SO - #0 min. #0,200 mm 0,0 UV-I 0 W/m 7,2 C 3,6 C 20,6 km/h (4 Bft)